sensor_id;sensor_type;location;lat;lon;timestamp;P1;durP1;ratioP1;P2;durP2;ratioP2
23990;SDS011;12205;50.600;4.608;2022-11-20T00:00:50;77.45;;;19.35;;
23990;SDS011;12205;50.600;4.608;2022-11-20T00:03:17;87.93;;;24.27;;
23990;SDS011;12205;50.600;4.608;2022-11-20T00:05:45;77.65;;;19.15;;
23990;SDS011;12205;50.600;4.608;2022-11-20T00:08:12;71.60;;;18.20;;
23990;SDS011;12205;50.600;4.608;2022-11-20T00:10:40;76.35;;;19.70;;
23990;SDS011;12205;50.600;4.608;2022-11-20T00:13:07;74.30;;;18.65;;
23990;SDS011;12205;50.600;4.608;2022-11-20T00:15:34;87.55;;;20.65;;
23990;SDS011;12205;50.600;4.608;2022-11-20T00:18:02;69.90;;;18.85;;
23990;SDS011;12205;50.600;4.608;2022-11-20T00:20:29;70.72;;;18.90;;
23990;SDS011;12205;50.600;4.608;2022-11-20T00:22:56;75.43;;;19.20;;
23990;SDS011;12205;50.600;4.608;2022-11-20T00:25:23;85.82;;;23.83;;
23990;SDS011;12205;50.600;4.608;2022-11-20T00:27:51;73.10;;;17.85;;
23990;SDS011;12205;50.600;4.608;2022-11-20T00:30:18;79.03;;;19.88;;
23990;SDS011;12205;50.600;4.608;2022-11-20T00:32:45;76.55;;;18.42;;
23990;SDS011;12205;50.600;4.608;2022-11-20T00:35:13;78.65;;;18.98;;
23990;SDS011;12205;50.600;4.608;2022-11-20T00:37:40;75.30;;;18.05;;
23990;SDS011;12205;50.600;4.608;2022-11-20T00:40:07;79.68;;;18.80;;
23990;SDS011;12205;50.600;4.608;2022-11-20T00:42:36;83.72;;;20.27;;
23990;SDS011;12205;50.600;4.608;2022-11-20T00:45:05;73.88;;;18.98;;
23990;SDS011;12205;50.600;4.608;2022-11-20T00:47:32;80.75;;;21.50;;
23990;SDS011;12205;50.600;4.608;2022-11-20T00:49:59;87.45;;;19.10;;
23990;SDS011;12205;50.600;4.608;2022-11-20T00:52:26;72.93;;;18.63;;
23990;SDS011;12205;50.600;4.608;2022-11-20T00:54:54;78.05;;;18.13;;
23990;SDS011;12205;50.600;4.608;2022-11-20T00:57:21;73.03;;;17.95;;
23990;SDS011;12205;50.600;4.608;2022-11-20T00:59:48;81.95;;;20.45;;
23990;SDS011;12205;50.600;4.608;2022-11-20T01:02:16;72.88;;;18.05;;
23990;SDS011;12205;50.600;4.608;2022-11-20T01:04:43;63.90;;;17.42;;
23990;SDS011;12205;50.600;4.608;2022-11-20T01:07:10;68.05;;;17.17;;
23990;SDS011;12205;50.600;4.608;2022-11-20T01:09:37;68.40;;;18.05;;
23990;SDS011;12205;50.600;4.608;2022-11-20T01:12:04;66.25;;;17.73;;
23990;SDS011;12205;50.600;4.608;2022-11-20T01:14:32;72.55;;;18.35;;
23990;SDS011;12205;50.600;4.608;2022-11-20T01:16:59;64.40;;;16.23;;
23990;SDS011;12205;50.600;4.608;2022-11-20T01:19:27;65.82;;;17.20;;
23990;SDS011;12205;50.600;4.608;2022-11-20T01:21:54;69.43;;;17.92;;
23990;SDS011;12205;50.600;4.608;2022-11-20T01:24:21;62.60;;;16.80;;
23990;SDS011;12205;50.600;4.608;2022-11-20T01:26:49;63.15;;;16.25;;
23990;SDS011;12205;50.600;4.608;2022-11-20T01:29:18;73.70;;;18.45;;
23990;SDS011;12205;50.600;4.608;2022-11-20T01:31:47;71.40;;;17.45;;
23990;SDS011;12205;50.600;4.608;2022-11-20T01:34:15;66.40;;;16.85;;
23990;SDS011;12205;50.600;4.608;2022-11-20T01:36:46;75.70;;;20.77;;
23990;SDS011;12205;50.600;4.608;2022-11-20T01:39:14;62.83;;;16.48;;
23990;SDS011;12205;50.600;4.608;2022-11-20T01:41:44;64.43;;;16.52;;
23990;SDS011;12205;50.600;4.608;2022-11-20T01:44:47;59.58;;;15.55;;
23990;SDS011;12205;50.600;4.608;2022-11-20T01:47:22;61.08;;;15.02;;
23990;SDS011;12205;50.600;4.608;2022-11-20T01:49:56;63.58;;;15.95;;
23990;SDS011;12205;50.600;4.608;2022-11-20T01:52:32;62.90;;;15.90;;
23990;SDS011;12205;50.600;4.608;2022-11-20T01:55:05;67.15;;;16.30;;
23990;SDS011;12205;50.600;4.608;2022-11-20T01:57:35;65.90;;;17.48;;
23990;SDS011;12205;50.600;4.608;2022-11-20T02:00:05;62.40;;;17.20;;
23990;SDS011;12205;50.600;4.608;2022-11-20T02:02:38;63.95;;;16.63;;
23990;SDS011;12205;50.600;4.608;2022-11-20T02:05:11;62.08;;;15.88;;
23990;SDS011;12205;50.600;4.608;2022-11-20T02:07:48;60.05;;;16.02;;
23990;SDS011;12205;50.600;4.608;2022-11-20T02:10:16;58.20;;;15.48;;
23990;SDS011;12205;50.600;4.608;2022-11-20T02:12:44;56.22;;;14.43;;
23990;SDS011;12205;50.600;4.608;2022-11-20T02:15:28;68.22;;;18.63;;
23990;SDS011;12205;50.600;4.608;2022-11-20T02:17:55;51.40;;;13.82;;
23990;SDS011;12205;50.600;4.608;2022-11-20T02:20:23;55.72;;;15.38;;
23990;SDS011;12205;50.600;4.608;2022-11-20T02:22:54;53.03;;;13.25;;
23990;SDS011;12205;50.600;4.608;2022-11-20T02:25:30;51.20;;;13.15;;
23990;SDS011;12205;50.600;4.608;2022-11-20T02:28:01;50.63;;;13.85;;
23990;SDS011;12205;50.600;4.608;2022-11-20T02:30:29;54.10;;;14.30;;
23990;SDS011;12205;50.600;4.608;2022-11-20T02:32:57;54.35;;;13.65;;
23990;SDS011;12205;50.600;4.608;2022-11-20T02:35:40;51.63;;;13.43;;
23990;SDS011;12205;50.600;4.608;2022-11-20T02:38:10;59.08;;;14.10;;
23990;SDS011;12205;50.600;4.608;2022-11-20T02:40:40;47.70;;;12.43;;
23990;SDS011;12205;50.600;4.608;2022-11-20T02:43:07;58.95;;;13.85;;
23990;SDS011;12205;50.600;4.608;2022-11-20T02:45:34;50.60;;;12.57;;
23990;SDS011;12205;50.600;4.608;2022-11-20T02:48:02;49.85;;;13.38;;
23990;SDS011;12205;50.600;4.608;2022-11-20T02:50:32;43.42;;;11.88;;
23990;SDS011;12205;50.600;4.608;2022-11-20T02:52:59;45.80;;;11.60;;
23990;SDS011;12205;50.600;4.608;2022-11-20T02:55:26;44.33;;;11.38;;
23990;SDS011;12205;50.600;4.608;2022-11-20T02:57:54;48.40;;;12.48;;
23990;SDS011;12205;50.600;4.608;2022-11-20T03:00:21;48.95;;;11.90;;
23990;SDS011;12205;50.600;4.608;2022-11-20T03:02:48;38.85;;;10.63;;
23990;SDS011;12205;50.600;4.608;2022-11-20T03:05:16;43.45;;;11.45;;
23990;SDS011;12205;50.600;4.608;2022-11-20T03:07:43;46.78;;;11.88;;
23990;SDS011;12205;50.600;4.608;2022-11-20T03:10:11;55.95;;;14.90;;
23990;SDS011;12205;50.600;4.608;2022-11-20T03:12:38;43.25;;;11.48;;
23990;SDS011;12205;50.600;4.608;2022-11-20T03:15:07;48.58;;;12.35;;
23990;SDS011;12205;50.600;4.608;2022-11-20T03:17:35;48.85;;;11.60;;
23990;SDS011;12205;50.600;4.608;2022-11-20T03:20:02;42.92;;;11.77;;
23990;SDS011;12205;50.600;4.608;2022-11-20T03:22:31;50.35;;;12.77;;
23990;SDS011;12205;50.600;4.608;2022-11-20T03:24:58;51.67;;;13.23;;
23990;SDS011;12205;50.600;4.608;2022-11-20T03:27:25;51.40;;;12.50;;
23990;SDS011;12205;50.600;4.608;2022-11-20T03:29:52;49.08;;;11.77;;
23990;SDS011;12205;50.600;4.608;2022-11-20T03:32:21;67.93;;;17.48;;
23990;SDS011;12205;50.600;4.608;2022-11-20T03:34:48;46.22;;;12.23;;
23990;SDS011;12205;50.600;4.608;2022-11-20T03:37:15;58.42;;;14.95;;
23990;SDS011;12205;50.600;4.608;2022-11-20T03:39:42;56.00;;;14.48;;
23990;SDS011;12205;50.600;4.608;2022-11-20T03:42:09;59.70;;;14.13;;
23990;SDS011;12205;50.600;4.608;2022-11-20T03:44:56;48.03;;;14.02;;
23990;SDS011;12205;50.600;4.608;2022-11-20T03:47:25;57.25;;;15.23;;
23990;SDS011;12205;50.600;4.608;2022-11-20T03:49:52;49.13;;;13.13;;
23990;SDS011;12205;50.600;4.608;2022-11-20T03:52:19;56.53;;;15.40;;
23990;SDS011;12205;50.600;4.608;2022-11-20T03:54:46;46.80;;;12.43;;
23990;SDS011;12205;50.600;4.608;2022-11-20T03:57:13;46.20;;;11.15;;
23990;SDS011;12205;50.600;4.608;2022-11-20T03:59:40;57.80;;;15.75;;
23990;SDS011;12205;50.600;4.608;2022-11-20T04:02:07;55.95;;;13.20;;
23990;SDS011;12205;50.600;4.608;2022-11-20T04:04:36;53.85;;;12.32;;
23990;SDS011;12205;50.600;4.608;2022-11-20T04:07:03;57.58;;;13.93;;
23990;SDS011;12205;50.600;4.608;2022-11-20T04:09:30;63.40;;;14.75;;
23990;SDS011;12205;50.600;4.608;2022-11-20T04:11:57;57.05;;;13.65;;
23990;SDS011;12205;50.600;4.608;2022-11-20T04:14:24;61.47;;;14.73;;
23990;SDS011;12205;50.600;4.608;2022-11-20T04:16:51;48.35;;;11.95;;
23990;SDS011;12205;50.600;4.608;2022-11-20T04:19:18;66.03;;;14.70;;
23990;SDS011;12205;50.600;4.608;2022-11-20T04:21:47;64.95;;;17.58;;
23990;SDS011;12205;50.600;4.608;2022-11-20T04:24:14;64.18;;;14.88;;
23990;SDS011;12205;50.600;4.608;2022-11-20T04:26:41;57.20;;;14.18;;
23990;SDS011;12205;50.600;4.608;2022-11-20T04:29:09;61.25;;;14.73;;
23990;SDS011;12205;50.600;4.608;2022-11-20T04:31:38;57.72;;;14.30;;
23990;SDS011;12205;50.600;4.608;2022-11-20T04:34:05;59.65;;;13.95;;
23990;SDS011;12205;50.600;4.608;2022-11-20T04:36:34;63.28;;;14.10;;
23990;SDS011;12205;50.600;4.608;2022-11-20T04:39:03;63.60;;;15.23;;
23990;SDS011;12205;50.600;4.608;2022-11-20T04:41:33;63.58;;;14.40;;
23990;SDS011;12205;50.600;4.608;2022-11-20T04:44:03;63.03;;;16.73;;
23990;SDS011;12205;50.600;4.608;2022-11-20T04:46:32;58.72;;;14.52;;
23990;SDS011;12205;50.600;4.608;2022-11-20T04:49:02;57.40;;;14.55;;
23990;SDS011;12205;50.600;4.608;2022-11-20T04:51:29;56.03;;;14.85;;
23990;SDS011;12205;50.600;4.608;2022-11-20T04:53:56;62.40;;;14.73;;
23990;SDS011;12205;50.600;4.608;2022-11-20T04:56:25;57.55;;;14.80;;
23990;SDS011;12205;50.600;4.608;2022-11-20T04:58:52;56.45;;;14.23;;
23990;SDS011;12205;50.600;4.608;2022-11-20T05:01:20;55.33;;;13.95;;
23990;SDS011;12205;50.600;4.608;2022-11-20T05:03:49;70.65;;;15.63;;
23990;SDS011;12205;50.600;4.608;2022-11-20T05:06:17;64.35;;;15.85;;
23990;SDS011;12205;50.600;4.608;2022-11-20T05:08:46;66.25;;;15.15;;
23990;SDS011;12205;50.600;4.608;2022-11-20T05:11:13;69.32;;;17.88;;
23990;SDS011;12205;50.600;4.608;2022-11-20T05:13:44;58.60;;;14.05;;
23990;SDS011;12205;50.600;4.608;2022-11-20T05:16:12;55.45;;;13.82;;
23990;SDS011;12205;50.600;4.608;2022-11-20T05:18:41;72.93;;;16.02;;
23990;SDS011;12205;50.600;4.608;2022-11-20T05:21:08;62.10;;;15.45;;
23990;SDS011;12205;50.600;4.608;2022-11-20T05:23:37;64.05;;;15.02;;
23990;SDS011;12205;50.600;4.608;2022-11-20T05:26:05;65.45;;;15.18;;
23990;SDS011;12205;50.600;4.608;2022-11-20T05:28:33;51.13;;;13.52;;
23990;SDS011;12205;50.600;4.608;2022-11-20T05:31:06;65.03;;;15.77;;
23990;SDS011;12205;50.600;4.608;2022-11-20T05:33:35;68.35;;;16.90;;
23990;SDS011;12205;50.600;4.608;2022-11-20T05:36:02;69.55;;;16.15;;
23990;SDS011;12205;50.600;4.608;2022-11-20T05:38:31;66.75;;;15.52;;
23990;SDS011;12205;50.600;4.608;2022-11-20T05:41:05;59.35;;;13.93;;
23990;SDS011;12205;50.600;4.608;2022-11-20T05:43:34;57.15;;;14.63;;
23990;SDS011;12205;50.600;4.608;2022-11-20T05:46:02;64.28;;;15.55;;
23990;SDS011;12205;50.600;4.608;2022-11-20T05:48:32;62.72;;;15.88;;
23990;SDS011;12205;50.600;4.608;2022-11-20T05:51:01;60.88;;;15.40;;
23990;SDS011;12205;50.600;4.608;2022-11-20T05:53:31;67.07;;;15.63;;
23990;SDS011;12205;50.600;4.608;2022-11-20T05:55:59;65.90;;;15.27;;
23990;SDS011;12205;50.600;4.608;2022-11-20T05:58:28;73.57;;;16.95;;
23990;SDS011;12205;50.600;4.608;2022-11-20T06:01:02;66.35;;;19.10;;
23990;SDS011;12205;50.600;4.608;2022-11-20T06:03:33;64.40;;;15.02;;
23990;SDS011;12205;50.600;4.608;2022-11-20T06:06:00;71.22;;;16.50;;
23990;SDS011;12205;50.600;4.608;2022-11-20T06:08:29;74.03;;;15.02;;
23990;SDS011;12205;50.600;4.608;2022-11-20T06:10:57;62.58;;;14.88;;
23990;SDS011;12205;50.600;4.608;2022-11-20T06:13:25;59.40;;;14.13;;
23990;SDS011;12205;50.600;4.608;2022-11-20T06:15:53;64.72;;;15.38;;
23990;SDS011;12205;50.600;4.608;2022-11-20T06:18:20;63.25;;;14.57;;
23990;SDS011;12205;50.600;4.608;2022-11-20T06:20:48;56.58;;;13.82;;
23990;SDS011;12205;50.600;4.608;2022-11-20T06:23:15;65.90;;;15.88;;
23990;SDS011;12205;50.600;4.608;2022-11-20T06:25:43;53.10;;;13.30;;
23990;SDS011;12205;50.600;4.608;2022-11-20T06:28:10;68.32;;;17.40;;
23990;SDS011;12205;50.600;4.608;2022-11-20T06:30:37;60.92;;;14.68;;
23990;SDS011;12205;50.600;4.608;2022-11-20T06:33:11;63.80;;;14.80;;
23990;SDS011;12205;50.600;4.608;2022-11-20T06:35:38;57.88;;;14.57;;
23990;SDS011;12205;50.600;4.608;2022-11-20T06:38:06;66.47;;;15.00;;
23990;SDS011;12205;50.600;4.608;2022-11-20T06:40:33;53.30;;;13.63;;
23990;SDS011;12205;50.600;4.608;2022-11-20T06:43:00;56.22;;;13.55;;
23990;SDS011;12205;50.600;4.608;2022-11-20T06:45:27;55.78;;;13.60;;
23990;SDS011;12205;50.600;4.608;2022-11-20T06:47:56;50.33;;;13.68;;
23990;SDS011;12205;50.600;4.608;2022-11-20T06:50:23;72.47;;;18.85;;
23990;SDS011;12205;50.600;4.608;2022-11-20T06:52:50;54.55;;;13.75;;
23990;SDS011;12205;50.600;4.608;2022-11-20T06:55:19;61.85;;;15.50;;
23990;SDS011;12205;50.600;4.608;2022-11-20T06:57:46;57.95;;;13.63;;
23990;SDS011;12205;50.600;4.608;2022-11-20T07:00:13;62.00;;;14.43;;
23990;SDS011;12205;50.600;4.608;2022-11-20T07:02:41;56.95;;;14.75;;
23990;SDS011;12205;50.600;4.608;2022-11-20T07:05:08;56.30;;;14.80;;
23990;SDS011;12205;50.600;4.608;2022-11-20T07:07:35;52.60;;;13.63;;
23990;SDS011;12205;50.600;4.608;2022-11-20T07:10:02;56.05;;;14.10;;
23990;SDS011;12205;50.600;4.608;2022-11-20T07:12:32;66.50;;;17.83;;
23990;SDS011;12205;50.600;4.608;2022-11-20T07:14:59;60.92;;;14.60;;
23990;SDS011;12205;50.600;4.608;2022-11-20T07:17:26;55.17;;;14.18;;
23990;SDS011;12205;50.600;4.608;2022-11-20T07:19:53;58.78;;;13.65;;
23990;SDS011;12205;50.600;4.608;2022-11-20T07:22:20;54.22;;;12.98;;
23990;SDS011;12205;50.600;4.608;2022-11-20T07:24:48;66.63;;;15.13;;
23990;SDS011;12205;50.600;4.608;2022-11-20T07:27:15;62.10;;;14.25;;
23990;SDS011;12205;50.600;4.608;2022-11-20T07:29:43;60.97;;;13.57;;
23990;SDS011;12205;50.600;4.608;2022-11-20T07:32:10;61.22;;;15.07;;
23990;SDS011;12205;50.600;4.608;2022-11-20T07:34:37;65.05;;;15.85;;
23990;SDS011;12205;50.600;4.608;2022-11-20T07:37:04;59.90;;;14.45;;
23990;SDS011;12205;50.600;4.608;2022-11-20T07:39:31;64.07;;;15.30;;
23990;SDS011;12205;50.600;4.608;2022-11-20T07:41:58;60.25;;;13.80;;
23990;SDS011;12205;50.600;4.608;2022-11-20T07:44:25;57.67;;;13.93;;
23990;SDS011;12205;50.600;4.608;2022-11-20T07:46:54;54.70;;;13.18;;
23990;SDS011;12205;50.600;4.608;2022-11-20T07:49:21;55.58;;;12.88;;
23990;SDS011;12205;50.600;4.608;2022-11-20T07:51:49;48.90;;;11.90;;
23990;SDS011;12205;50.600;4.608;2022-11-20T07:54:18;55.55;;;14.07;;
23990;SDS011;12205;50.600;4.608;2022-11-20T07:56:46;48.13;;;12.35;;
23990;SDS011;12205;50.600;4.608;2022-11-20T07:59:14;57.97;;;13.18;;
23990;SDS011;12205;50.600;4.608;2022-11-20T08:01:42;67.05;;;15.13;;
23990;SDS011;12205;50.600;4.608;2022-11-20T08:04:10;47.42;;;12.60;;
23990;SDS011;12205;50.600;4.608;2022-11-20T08:06:37;42.45;;;11.07;;
23990;SDS011;12205;50.600;4.608;2022-11-20T08:09:04;51.03;;;12.98;;
23990;SDS011;12205;50.600;4.608;2022-11-20T08:11:32;45.50;;;11.63;;
23990;SDS011;12205;50.600;4.608;2022-11-20T08:14:16;43.20;;;11.18;;
23990;SDS011;12205;50.600;4.608;2022-11-20T08:16:44;39.53;;;10.00;;
23990;SDS011;12205;50.600;4.608;2022-11-20T08:19:16;47.75;;;11.63;;
23990;SDS011;12205;50.600;4.608;2022-11-20T08:21:44;51.15;;;12.27;;
23990;SDS011;12205;50.600;4.608;2022-11-20T08:24:12;48.17;;;12.57;;
23990;SDS011;12205;50.600;4.608;2022-11-20T08:26:39;56.83;;;13.95;;
23990;SDS011;12205;50.600;4.608;2022-11-20T08:29:07;51.67;;;12.30;;
23990;SDS011;12205;50.600;4.608;2022-11-20T08:31:34;46.25;;;11.45;;
23990;SDS011;12205;50.600;4.608;2022-11-20T08:34:01;62.30;;;15.05;;
23990;SDS011;12205;50.600;4.608;2022-11-20T08:36:32;58.38;;;13.68;;
23990;SDS011;12205;50.600;4.608;2022-11-20T08:39:00;44.90;;;12.30;;
23990;SDS011;12205;50.600;4.608;2022-11-20T08:41:27;44.00;;;11.73;;
23990;SDS011;12205;50.600;4.608;2022-11-20T08:43:58;43.53;;;11.18;;
23990;SDS011;12205;50.600;4.608;2022-11-20T08:46:27;67.72;;;17.17;;
23990;SDS011;12205;50.600;4.608;2022-11-20T08:49:00;65.38;;;17.52;;
23990;SDS011;12205;50.600;4.608;2022-11-20T08:51:27;58.33;;;16.63;;
23990;SDS011;12205;50.600;4.608;2022-11-20T08:53:56;40.78;;;10.63;;
23990;SDS011;12205;50.600;4.608;2022-11-20T08:56:23;39.78;;;10.13;;
23990;SDS011;12205;50.600;4.608;2022-11-20T08:58:50;31.95;;;9.73;;
23990;SDS011;12205;50.600;4.608;2022-11-20T09:01:18;36.55;;;10.30;;
23990;SDS011;12205;50.600;4.608;2022-11-20T09:03:46;37.85;;;9.20;;
23990;SDS011;12205;50.600;4.608;2022-11-20T09:06:14;38.08;;;10.82;;
23990;SDS011;12205;50.600;4.608;2022-11-20T09:08:43;43.60;;;10.93;;
23990;SDS011;12205;50.600;4.608;2022-11-20T09:11:10;46.95;;;11.88;;
23990;SDS011;12205;50.600;4.608;2022-11-20T09:13:37;47.13;;;12.45;;
23990;SDS011;12205;50.600;4.608;2022-11-20T09:16:05;37.22;;;9.98;;
23990;SDS011;12205;50.600;4.608;2022-11-20T09:18:35;34.92;;;8.98;;
23990;SDS011;12205;50.600;4.608;2022-11-20T09:21:04;40.85;;;9.30;;
23990;SDS011;12205;50.600;4.608;2022-11-20T09:23:33;56.22;;;10.02;;
23990;SDS011;12205;50.600;4.608;2022-11-20T09:26:04;32.45;;;9.23;;
23990;SDS011;12205;50.600;4.608;2022-11-20T09:28:32;33.08;;;8.65;;
23990;SDS011;12205;50.600;4.608;2022-11-20T09:30:59;33.67;;;8.32;;
23990;SDS011;12205;50.600;4.608;2022-11-20T09:33:30;26.10;;;7.83;;
23990;SDS011;12205;50.600;4.608;2022-11-20T09:35:57;31.45;;;8.80;;
23990;SDS011;12205;50.600;4.608;2022-11-20T09:38:24;27.13;;;7.65;;
23990;SDS011;12205;50.600;4.608;2022-11-20T09:40:53;45.42;;;13.77;;
23990;SDS011;12205;50.600;4.608;2022-11-20T09:43:28;31.60;;;8.50;;
23990;SDS011;12205;50.600;4.608;2022-11-20T09:46:21;36.72;;;11.13;;
23990;SDS011;12205;50.600;4.608;2022-11-20T09:49:03;29.20;;;7.20;;
23990;SDS011;12205;50.600;4.608;2022-11-20T09:51:51;38.50;;;11.27;;
23990;SDS011;12205;50.600;4.608;2022-11-20T09:54:26;27.13;;;7.25;;
23990;SDS011;12205;50.600;4.608;2022-11-20T09:57:00;32.45;;;7.32;;
23990;SDS011;12205;50.600;4.608;2022-11-20T09:59:35;23.48;;;6.15;;
23990;SDS011;12205;50.600;4.608;2022-11-20T10:02:12;29.02;;;6.97;;
23990;SDS011;12205;50.600;4.608;2022-11-20T10:05:02;20.30;;;5.00;;
23990;SDS011;12205;50.600;4.608;2022-11-20T10:07:39;36.78;;;8.25;;
23990;SDS011;12205;50.600;4.608;2022-11-20T10:10:15;26.60;;;7.22;;
23990;SDS011;12205;50.600;4.608;2022-11-20T10:12:49;28.13;;;7.57;;
23990;SDS011;12205;50.600;4.608;2022-11-20T10:15:38;17.88;;;4.85;;
23990;SDS011;12205;50.600;4.608;2022-11-20T10:18:23;26.02;;;6.65;;
23990;SDS011;12205;50.600;4.608;2022-11-20T10:21:10;27.35;;;7.10;;
23990;SDS011;12205;50.600;4.608;2022-11-20T10:23:53;26.03;;;6.50;;
23990;SDS011;12205;50.600;4.608;2022-11-20T10:26:40;23.98;;;5.63;;
23990;SDS011;12205;50.600;4.608;2022-11-20T10:29:18;24.42;;;5.68;;
23990;SDS011;12205;50.600;4.608;2022-11-20T10:31:54;25.70;;;6.30;;
23990;SDS011;12205;50.600;4.608;2022-11-20T10:34:28;25.30;;;7.10;;
23990;SDS011;12205;50.600;4.608;2022-11-20T10:37:08;23.58;;;5.85;;
23990;SDS011;12205;50.600;4.608;2022-11-20T10:39:42;26.92;;;6.20;;
23990;SDS011;12205;50.600;4.608;2022-11-20T10:42:22;30.55;;;7.13;;
23990;SDS011;12205;50.600;4.608;2022-11-20T10:44:58;35.80;;;7.72;;
23990;SDS011;12205;50.600;4.608;2022-11-20T10:47:41;18.52;;;5.13;;
23990;SDS011;12205;50.600;4.608;2022-11-20T10:50:09;31.88;;;7.50;;
23990;SDS011;12205;50.600;4.608;2022-11-20T10:52:43;36.50;;;7.22;;
23990;SDS011;12205;50.600;4.608;2022-11-20T10:55:27;26.35;;;6.43;;
23990;SDS011;12205;50.600;4.608;2022-11-20T10:58:09;34.15;;;9.85;;
23990;SDS011;12205;50.600;4.608;2022-11-20T11:00:40;25.10;;;5.57;;
23990;SDS011;12205;50.600;4.608;2022-11-20T11:03:15;37.60;;;7.63;;
23990;SDS011;12205;50.600;4.608;2022-11-20T11:05:54;54.42;;;10.13;;
23990;SDS011;12205;50.600;4.608;2022-11-20T11:08:28;39.80;;;9.80;;
23990;SDS011;12205;50.600;4.608;2022-11-20T11:11:07;29.10;;;6.93;;
23990;SDS011;12205;50.600;4.608;2022-11-20T11:13:47;32.42;;;7.93;;
23990;SDS011;12205;50.600;4.608;2022-11-20T11:16:20;23.00;;;5.30;;
23990;SDS011;12205;50.600;4.608;2022-11-20T11:18:51;16.40;;;4.43;;
23990;SDS011;12205;50.600;4.608;2022-11-20T11:21:30;22.42;;;5.25;;
23990;SDS011;12205;50.600;4.608;2022-11-20T11:23:57;17.35;;;4.60;;
23990;SDS011;12205;50.600;4.608;2022-11-20T11:26:27;15.95;;;4.20;;
23990;SDS011;12205;50.600;4.608;2022-11-20T11:28:55;16.63;;;4.47;;
23990;SDS011;12205;50.600;4.608;2022-11-20T11:31:25;27.67;;;6.20;;
23990;SDS011;12205;50.600;4.608;2022-11-20T11:34:04;15.75;;;3.65;;
23990;SDS011;12205;50.600;4.608;2022-11-20T11:36:32;31.75;;;8.55;;
23990;SDS011;12205;50.600;4.608;2022-11-20T11:39:02;20.33;;;4.70;;
23990;SDS011;12205;50.600;4.608;2022-11-20T11:44:02;22.80;;;5.18;;
23990;SDS011;12205;50.600;4.608;2022-11-20T11:47:00;19.13;;;4.95;;
23990;SDS011;12205;50.600;4.608;2022-11-20T11:49:32;23.45;;;5.32;;
23990;SDS011;12205;50.600;4.608;2022-11-20T11:52:01;15.77;;;4.20;;
23990;SDS011;12205;50.600;4.608;2022-11-20T11:54:40;19.15;;;4.38;;
23990;SDS011;12205;50.600;4.608;2022-11-20T11:57:16;15.55;;;3.88;;
23990;SDS011;12205;50.600;4.608;2022-11-20T11:59:53;18.50;;;4.22;;
23990;SDS011;12205;50.600;4.608;2022-11-20T12:02:32;22.85;;;5.90;;
23990;SDS011;12205;50.600;4.608;2022-11-20T12:05:10;19.48;;;5.28;;
23990;SDS011;12205;50.600;4.608;2022-11-20T12:07:47;20.75;;;4.78;;
23990;SDS011;12205;50.600;4.608;2022-11-20T12:10:20;19.50;;;4.75;;
23990;SDS011;12205;50.600;4.608;2022-11-20T12:12:56;24.67;;;5.35;;
23990;SDS011;12205;50.600;4.608;2022-11-20T12:15:35;17.40;;;4.57;;
23990;SDS011;12205;50.600;4.608;2022-11-20T12:18:07;26.33;;;5.30;;
23990;SDS011;12205;50.600;4.608;2022-11-20T12:20:44;25.25;;;6.30;;
23990;SDS011;12205;50.600;4.608;2022-11-20T12:23:27;31.48;;;8.05;;
23990;SDS011;12205;50.600;4.608;2022-11-20T12:26:07;36.92;;;9.95;;
23990;SDS011;12205;50.600;4.608;2022-11-20T12:28:46;16.70;;;4.90;;
23990;SDS011;12205;50.600;4.608;2022-11-20T12:31:30;37.78;;;10.18;;
23990;SDS011;12205;50.600;4.608;2022-11-20T12:34:22;19.92;;;5.60;;
23990;SDS011;12205;50.600;4.608;2022-11-20T12:37:17;23.73;;;5.35;;
23990;SDS011;12205;50.600;4.608;2022-11-20T12:40:02;19.17;;;5.57;;
23990;SDS011;12205;50.600;4.608;2022-11-20T12:42:54;21.07;;;5.40;;
23990;SDS011;12205;50.600;4.608;2022-11-20T12:46:02;18.63;;;4.78;;
23990;SDS011;12205;50.600;4.608;2022-11-20T12:51:52;18.83;;;5.78;;
23990;SDS011;12205;50.600;4.608;2022-11-20T12:54:56;17.77;;;4.28;;
23990;SDS011;12205;50.600;4.608;2022-11-20T12:57:48;19.17;;;4.50;;
23990;SDS011;12205;50.600;4.608;2022-11-20T13:00:21;17.63;;;5.13;;
23990;SDS011;12205;50.600;4.608;2022-11-20T13:02:56;21.90;;;5.53;;
23990;SDS011;12205;50.600;4.608;2022-11-20T13:05:44;22.25;;;5.50;;
23990;SDS011;12205;50.600;4.608;2022-11-20T13:08:22;18.10;;;4.95;;
23990;SDS011;12205;50.600;4.608;2022-11-20T13:10:56;19.73;;;5.40;;
23990;SDS011;12205;50.600;4.608;2022-11-20T13:13:35;21.38;;;4.82;;
23990;SDS011;12205;50.600;4.608;2022-11-20T13:16:14;10.57;;;3.90;;
23990;SDS011;12205;50.600;4.608;2022-11-20T13:18:46;25.42;;;5.70;;
23990;SDS011;12205;50.600;4.608;2022-11-20T13:21:17;21.05;;;6.05;;
23990;SDS011;12205;50.600;4.608;2022-11-20T13:23:46;16.52;;;4.43;;
23990;SDS011;12205;50.600;4.608;2022-11-20T13:26:17;30.25;;;8.93;;
23990;SDS011;12205;50.600;4.608;2022-11-20T13:28:58;20.83;;;5.65;;
23990;SDS011;12205;50.600;4.608;2022-11-20T13:31:35;15.25;;;4.10;;
23990;SDS011;12205;50.600;4.608;2022-11-20T13:34:05;19.65;;;5.38;;
23990;SDS011;12205;50.600;4.608;2022-11-20T13:36:38;13.82;;;4.32;;
23990;SDS011;12205;50.600;4.608;2022-11-20T13:39:23;21.92;;;4.95;;
23990;SDS011;12205;50.600;4.608;2022-11-20T13:41:55;19.67;;;4.85;;
23990;SDS011;12205;50.600;4.608;2022-11-20T13:44:25;13.48;;;4.13;;
23990;SDS011;12205;50.600;4.608;2022-11-20T13:47:00;18.35;;;4.75;;
23990;SDS011;12205;50.600;4.608;2022-11-20T13:49:29;17.02;;;5.05;;
23990;SDS011;12205;50.600;4.608;2022-11-20T13:52:07;19.65;;;5.07;;
23990;SDS011;12205;50.600;4.608;2022-11-20T13:55:08;26.48;;;6.05;;
23990;SDS011;12205;50.600;4.608;2022-11-20T13:57:53;14.15;;;4.28;;
23990;SDS011;12205;50.600;4.608;2022-11-20T14:00:48;17.25;;;4.60;;
23990;SDS011;12205;50.600;4.608;2022-11-20T14:03:24;16.70;;;5.00;;
23990;SDS011;12205;50.600;4.608;2022-11-20T14:05:56;17.90;;;5.15;;
23990;SDS011;12205;50.600;4.608;2022-11-20T14:08:31;20.25;;;4.60;;
23990;SDS011;12205;50.600;4.608;2022-11-20T14:11:06;19.25;;;5.05;;
23990;SDS011;12205;50.600;4.608;2022-11-20T14:16:28;17.00;;;5.20;;
23990;SDS011;12205;50.600;4.608;2022-11-20T14:19:24;14.82;;;4.18;;
23990;SDS011;12205;50.600;4.608;2022-11-20T14:22:07;18.00;;;4.75;;
23990;SDS011;12205;50.600;4.608;2022-11-20T14:24:42;15.02;;;3.92;;
23990;SDS011;12205;50.600;4.608;2022-11-20T14:27:11;26.45;;;7.43;;
23990;SDS011;12205;50.600;4.608;2022-11-20T14:29:43;9.07;;;3.30;;
23990;SDS011;12205;50.600;4.608;2022-11-20T14:34:43;18.17;;;4.88;;
23990;SDS011;12205;50.600;4.608;2022-11-20T14:37:17;15.38;;;4.05;;
23990;SDS011;12205;50.600;4.608;2022-11-20T14:39:50;19.45;;;5.15;;
23990;SDS011;12205;50.600;4.608;2022-11-20T14:42:19;26.00;;;6.80;;
23990;SDS011;12205;50.600;4.608;2022-11-20T14:44:50;17.50;;;4.80;;
23990;SDS011;12205;50.600;4.608;2022-11-20T14:47:22;17.70;;;5.07;;
23990;SDS011;12205;50.600;4.608;2022-11-20T14:49:52;19.05;;;5.28;;
23990;SDS011;12205;50.600;4.608;2022-11-20T14:52:22;19.92;;;5.00;;
23990;SDS011;12205;50.600;4.608;2022-11-20T14:54:52;18.27;;;4.60;;
23990;SDS011;12205;50.600;4.608;2022-11-20T14:57:25;14.48;;;4.60;;
23990;SDS011;12205;50.600;4.608;2022-11-20T15:00:07;27.38;;;8.73;;
23990;SDS011;12205;50.600;4.608;2022-11-20T15:02:46;14.88;;;4.38;;